Terminal Aerodrome Forecast
Issued by NWS Buffalo, NY

Home | Current Version | Previous Version | Text Only | Print | Product List | Glossary On
Versions: 1 2 3 4 5 6 7 8 9 10 11 12 13 14 15 16 17 18 19 20 21 22 23 24 25 26
550
FTUS41 KBUF 192331
TAFROC
TAF
KROC 192331Z 2000/2024 30013G21KT P6SM -SN FEW009 BKN028 OVC060
      TEMPO 2000/2003 4SM -SHSN OVC007
     FM200300 32012G21KT P6SM VCSH OVC035
     FM201500 30011G17KT P6SM BKN040
     FM201800 30012G19KT P6SM SCT040=

USA.gov is the U.S. government's official web portal to all federal, state and local government web resources and services.